sensor_id;sensor_type;location;lat;lon;timestamp;P1;durP1;ratioP1;P2;durP2;ratioP2
21243;SDS011;10780;50.942;4.028;2022-07-25T00:01:50;11.27;;;6.97;;
21243;SDS011;10780;50.942;4.028;2022-07-25T00:04:16;7.40;;;6.22;;
21243;SDS011;10780;50.942;4.028;2022-07-25T00:06:41;7.10;;;6.40;;
21243;SDS011;10780;50.942;4.028;2022-07-25T00:09:07;10.88;;;6.80;;
21243;SDS011;10780;50.942;4.028;2022-07-25T00:11:34;7.03;;;6.35;;
21243;SDS011;10780;50.942;4.028;2022-07-25T00:13:59;10.48;;;6.78;;
21243;SDS011;10780;50.942;4.028;2022-07-25T00:16:25;7.78;;;6.25;;
21243;SDS011;10780;50.942;4.028;2022-07-25T00:18:51;8.80;;;6.78;;
21243;SDS011;10780;50.942;4.028;2022-07-25T00:21:16;9.98;;;6.50;;
21243;SDS011;10780;50.942;4.028;2022-07-25T00:23:42;7.75;;;6.50;;
21243;SDS011;10780;50.942;4.028;2022-07-25T00:26:08;8.50;;;7.05;;
21243;SDS011;10780;50.942;4.028;2022-07-25T00:28:33;7.53;;;6.50;;
21243;SDS011;10780;50.942;4.028;2022-07-25T00:30:59;11.25;;;7.53;;
21243;SDS011;10780;50.942;4.028;2022-07-25T00:33:24;13.73;;;7.13;;
21243;SDS011;10780;50.942;4.028;2022-07-25T00:35:50;9.00;;;7.25;;
21243;SDS011;10780;50.942;4.028;2022-07-25T00:38:16;7.70;;;6.38;;
21243;SDS011;10780;50.942;4.028;2022-07-25T00:40:41;9.52;;;6.70;;
21243;SDS011;10780;50.942;4.028;2022-07-25T00:43:07;9.70;;;6.80;;
21243;SDS011;10780;50.942;4.028;2022-07-25T00:45:33;10.80;;;6.45;;
21243;SDS011;10780;50.942;4.028;2022-07-25T00:47:58;8.68;;;6.88;;
21243;SDS011;10780;50.942;4.028;2022-07-25T00:50:24;7.25;;;6.55;;
21243;SDS011;10780;50.942;4.028;2022-07-25T00:52:50;7.05;;;6.35;;
21243;SDS011;10780;50.942;4.028;2022-07-25T00:55:16;8.30;;;6.60;;
21243;SDS011;10780;50.942;4.028;2022-07-25T00:57:42;9.25;;;6.93;;
21243;SDS011;10780;50.942;4.028;2022-07-25T01:00:09;8.38;;;6.65;;
21243;SDS011;10780;50.942;4.028;2022-07-25T01:02:37;9.90;;;7.13;;
21243;SDS011;10780;50.942;4.028;2022-07-25T01:05:03;8.32;;;6.93;;
21243;SDS011;10780;50.942;4.028;2022-07-25T01:07:30;10.63;;;8.07;;
21243;SDS011;10780;50.942;4.028;2022-07-25T01:09:56;8.77;;;6.85;;
21243;SDS011;10780;50.942;4.028;2022-07-25T01:12:22;9.93;;;6.95;;
21243;SDS011;10780;50.942;4.028;2022-07-25T01:14:48;12.52;;;7.63;;
21243;SDS011;10780;50.942;4.028;2022-07-25T01:17:14;7.45;;;6.68;;
21243;SDS011;10780;50.942;4.028;2022-07-25T01:19:40;8.82;;;7.05;;
21243;SDS011;10780;50.942;4.028;2022-07-25T01:22:06;11.55;;;7.65;;
21243;SDS011;10780;50.942;4.028;2022-07-25T01:24:32;9.60;;;7.25;;
21243;SDS011;10780;50.942;4.028;2022-07-25T01:26:59;8.02;;;6.80;;
21243;SDS011;10780;50.942;4.028;2022-07-25T01:29:25;9.68;;;6.70;;
21243;SDS011;10780;50.942;4.028;2022-07-25T01:31:50;7.50;;;6.53;;
21243;SDS011;10780;50.942;4.028;2022-07-25T01:34:16;9.80;;;7.40;;
21243;SDS011;10780;50.942;4.028;2022-07-25T01:36:41;8.20;;;6.65;;
21243;SDS011;10780;50.942;4.028;2022-07-25T01:39:07;9.18;;;7.30;;
21243;SDS011;10780;50.942;4.028;2022-07-25T01:41:33;8.73;;;6.93;;
21243;SDS011;10780;50.942;4.028;2022-07-25T01:43:58;7.80;;;6.38;;
21243;SDS011;10780;50.942;4.028;2022-07-25T01:46:24;9.05;;;6.97;;
21243;SDS011;10780;50.942;4.028;2022-07-25T01:48:50;7.32;;;6.65;;
21243;SDS011;10780;50.942;4.028;2022-07-25T01:51:15;9.48;;;6.78;;
21243;SDS011;10780;50.942;4.028;2022-07-25T01:53:41;7.72;;;6.88;;
21243;SDS011;10780;50.942;4.028;2022-07-25T01:56:07;7.93;;;7.13;;
21243;SDS011;10780;50.942;4.028;2022-07-25T01:58:32;8.02;;;6.70;;
21243;SDS011;10780;50.942;4.028;2022-07-25T02:00:58;11.80;;;7.68;;
21243;SDS011;10780;50.942;4.028;2022-07-25T02:03:24;9.02;;;7.80;;
21243;SDS011;10780;50.942;4.028;2022-07-25T02:05:57;10.90;;;7.47;;
21243;SDS011;10780;50.942;4.028;2022-07-25T02:08:24;10.65;;;7.30;;
21243;SDS011;10780;50.942;4.028;2022-07-25T02:10:50;8.82;;;6.93;;
21243;SDS011;10780;50.942;4.028;2022-07-25T02:13:16;11.68;;;8.07;;
21243;SDS011;10780;50.942;4.028;2022-07-25T02:15:41;8.95;;;8.05;;
21243;SDS011;10780;50.942;4.028;2022-07-25T02:18:07;8.27;;;6.97;;
21243;SDS011;10780;50.942;4.028;2022-07-25T02:20:33;11.30;;;7.90;;
21243;SDS011;10780;50.942;4.028;2022-07-25T02:22:58;8.88;;;7.22;;
21243;SDS011;10780;50.942;4.028;2022-07-25T02:25:24;8.85;;;6.97;;
21243;SDS011;10780;50.942;4.028;2022-07-25T02:27:50;9.07;;;7.45;;
21243;SDS011;10780;50.942;4.028;2022-07-25T02:30:15;9.45;;;7.82;;
21243;SDS011;10780;50.942;4.028;2022-07-25T02:32:41;8.57;;;7.47;;
21243;SDS011;10780;50.942;4.028;2022-07-25T02:35:06;8.93;;;7.60;;
21243;SDS011;10780;50.942;4.028;2022-07-25T02:37:32;9.18;;;7.47;;
21243;SDS011;10780;50.942;4.028;2022-07-25T02:39:58;11.38;;;7.60;;
21243;SDS011;10780;50.942;4.028;2022-07-25T02:42:24;8.65;;;7.82;;
21243;SDS011;10780;50.942;4.028;2022-07-25T02:44:49;8.23;;;7.40;;
21243;SDS011;10780;50.942;4.028;2022-07-25T02:47:15;12.10;;;7.47;;
21243;SDS011;10780;50.942;4.028;2022-07-25T02:49:41;8.93;;;7.68;;
21243;SDS011;10780;50.942;4.028;2022-07-25T02:52:06;9.40;;;7.32;;
21243;SDS011;10780;50.942;4.028;2022-07-25T02:54:32;8.70;;;7.47;;
21243;SDS011;10780;50.942;4.028;2022-07-25T02:56:57;10.43;;;8.00;;
21243;SDS011;10780;50.942;4.028;2022-07-25T02:59:23;11.82;;;8.27;;
21243;SDS011;10780;50.942;4.028;2022-07-25T03:01:49;9.18;;;8.10;;
21243;SDS011;10780;50.942;4.028;2022-07-25T03:04:14;9.93;;;7.82;;
21243;SDS011;10780;50.942;4.028;2022-07-25T03:06:40;9.23;;;7.35;;
21243;SDS011;10780;50.942;4.028;2022-07-25T03:09:05;8.73;;;7.30;;
21243;SDS011;10780;50.942;4.028;2022-07-25T03:11:31;8.25;;;7.00;;
21243;SDS011;10780;50.942;4.028;2022-07-25T03:13:58;10.00;;;7.55;;
21243;SDS011;10780;50.942;4.028;2022-07-25T03:16:24;9.88;;;7.47;;
21243;SDS011;10780;50.942;4.028;2022-07-25T03:18:50;11.55;;;7.65;;
21243;SDS011;10780;50.942;4.028;2022-07-25T03:21:16;7.80;;;6.65;;
21243;SDS011;10780;50.942;4.028;2022-07-25T03:23:41;7.95;;;6.00;;
21243;SDS011;10780;50.942;4.028;2022-07-25T03:26:07;7.70;;;6.18;;
21243;SDS011;10780;50.942;4.028;2022-07-25T03:28:32;7.28;;;5.53;;
21243;SDS011;10780;50.942;4.028;2022-07-25T03:30:58;5.75;;;5.03;;
21243;SDS011;10780;50.942;4.028;2022-07-25T03:33:24;7.80;;;4.85;;
21243;SDS011;10780;50.942;4.028;2022-07-25T03:35:49;5.93;;;5.00;;
21243;SDS011;10780;50.942;4.028;2022-07-25T03:38:15;6.72;;;4.45;;
21243;SDS011;10780;50.942;4.028;2022-07-25T03:40:40;5.65;;;4.63;;
21243;SDS011;10780;50.942;4.028;2022-07-25T03:43:06;5.88;;;4.47;;
21243;SDS011;10780;50.942;4.028;2022-07-25T03:45:32;4.88;;;4.10;;
21243;SDS011;10780;50.942;4.028;2022-07-25T03:47:57;6.38;;;4.35;;
21243;SDS011;10780;50.942;4.028;2022-07-25T03:50:23;10.13;;;3.70;;
21243;SDS011;10780;50.942;4.028;2022-07-25T03:52:48;4.45;;;4.05;;
21243;SDS011;10780;50.942;4.028;2022-07-25T03:55:14;5.18;;;3.85;;
21243;SDS011;10780;50.942;4.028;2022-07-25T03:57:40;4.85;;;4.30;;
21243;SDS011;10780;50.942;4.028;2022-07-25T04:00:06;4.72;;;3.78;;
21243;SDS011;10780;50.942;4.028;2022-07-25T04:02:33;6.68;;;4.47;;
21243;SDS011;10780;50.942;4.028;2022-07-25T04:04:59;5.75;;;4.45;;
21243;SDS011;10780;50.942;4.028;2022-07-25T04:07:25;7.32;;;4.50;;
21243;SDS011;10780;50.942;4.028;2022-07-25T04:09:50;6.10;;;4.32;;
21243;SDS011;10780;50.942;4.028;2022-07-25T04:12:16;6.18;;;4.22;;
21243;SDS011;10780;50.942;4.028;2022-07-25T04:14:42;6.80;;;4.90;;
21243;SDS011;10780;50.942;4.028;2022-07-25T04:17:07;6.30;;;4.50;;
21243;SDS011;10780;50.942;4.028;2022-07-25T04:19:33;5.60;;;4.20;;
21243;SDS011;10780;50.942;4.028;2022-07-25T04:21:59;8.00;;;3.85;;
21243;SDS011;10780;50.942;4.028;2022-07-25T04:24:25;8.90;;;3.90;;
21243;SDS011;10780;50.942;4.028;2022-07-25T04:26:50;6.55;;;4.03;;
21243;SDS011;10780;50.942;4.028;2022-07-25T04:29:16;8.15;;;3.47;;
21243;SDS011;10780;50.942;4.028;2022-07-25T04:31:41;4.38;;;3.45;;
21243;SDS011;10780;50.942;4.028;2022-07-25T04:34:07;4.60;;;3.47;;
21243;SDS011;10780;50.942;4.028;2022-07-25T04:36:34;6.32;;;3.70;;
21243;SDS011;10780;50.942;4.028;2022-07-25T04:38:59;4.00;;;3.20;;
21243;SDS011;10780;50.942;4.028;2022-07-25T04:41:25;6.28;;;2.97;;
21243;SDS011;10780;50.942;4.028;2022-07-25T04:43:51;4.22;;;2.95;;
21243;SDS011;10780;50.942;4.028;2022-07-25T04:46:17;6.50;;;3.35;;
21243;SDS011;10780;50.942;4.028;2022-07-25T04:48:44;5.22;;;3.20;;
21243;SDS011;10780;50.942;4.028;2022-07-25T04:51:09;4.40;;;2.72;;
21243;SDS011;10780;50.942;4.028;2022-07-25T04:53:35;6.10;;;2.65;;
21243;SDS011;10780;50.942;4.028;2022-07-25T04:56:00;7.43;;;2.83;;
21243;SDS011;10780;50.942;4.028;2022-07-25T04:58:26;4.93;;;3.00;;
21243;SDS011;10780;50.942;4.028;2022-07-25T05:00:52;3.42;;;3.10;;
21243;SDS011;10780;50.942;4.028;2022-07-25T05:03:17;5.82;;;3.35;;
21243;SDS011;10780;50.942;4.028;2022-07-25T05:05:43;4.07;;;2.75;;
21243;SDS011;10780;50.942;4.028;2022-07-25T05:08:08;3.58;;;3.10;;
21243;SDS011;10780;50.942;4.028;2022-07-25T05:10:34;4.60;;;3.13;;
21243;SDS011;10780;50.942;4.028;2022-07-25T05:13:00;3.28;;;2.97;;
21243;SDS011;10780;50.942;4.028;2022-07-25T05:15:25;7.75;;;3.08;;
21243;SDS011;10780;50.942;4.028;2022-07-25T05:17:51;6.95;;;3.03;;
21243;SDS011;10780;50.942;4.028;2022-07-25T05:20:16;4.35;;;2.53;;
21243;SDS011;10780;50.942;4.028;2022-07-25T05:22:42;3.40;;;2.33;;
21243;SDS011;10780;50.942;4.028;2022-07-25T05:25:08;7.35;;;3.03;;
21243;SDS011;10780;50.942;4.028;2022-07-25T05:27:35;5.18;;;2.97;;
21243;SDS011;10780;50.942;4.028;2022-07-25T05:30:01;5.10;;;2.70;;
21243;SDS011;10780;50.942;4.028;2022-07-25T05:32:28;4.75;;;2.75;;
21243;SDS011;10780;50.942;4.028;2022-07-25T05:34:53;6.93;;;3.08;;
21243;SDS011;10780;50.942;4.028;2022-07-25T05:37:19;6.40;;;2.60;;
21243;SDS011;10780;50.942;4.028;2022-07-25T05:39:45;5.72;;;3.00;;
21243;SDS011;10780;50.942;4.028;2022-07-25T05:42:10;4.25;;;2.85;;
21243;SDS011;10780;50.942;4.028;2022-07-25T05:44:36;6.55;;;2.60;;
21243;SDS011;10780;50.942;4.028;2022-07-25T05:47:01;5.90;;;2.85;;
21243;SDS011;10780;50.942;4.028;2022-07-25T05:49:27;6.55;;;2.75;;
21243;SDS011;10780;50.942;4.028;2022-07-25T05:51:53;7.88;;;2.92;;
21243;SDS011;10780;50.942;4.028;2022-07-25T05:54:18;6.60;;;2.92;;
21243;SDS011;10780;50.942;4.028;2022-07-25T05:56:44;7.78;;;2.65;;
21243;SDS011;10780;50.942;4.028;2022-07-25T05:59:09;8.35;;;3.20;;
21243;SDS011;10780;50.942;4.028;2022-07-25T06:01:35;6.15;;;2.90;;
21243;SDS011;10780;50.942;4.028;2022-07-25T06:04:01;8.50;;;2.90;;
21243;SDS011;10780;50.942;4.028;2022-07-25T06:06:27;5.75;;;2.70;;
21243;SDS011;10780;50.942;4.028;2022-07-25T06:08:54;4.75;;;2.70;;
21243;SDS011;10780;50.942;4.028;2022-07-25T06:11:20;6.75;;;3.40;;
21243;SDS011;10780;50.942;4.028;2022-07-25T06:13:45;7.47;;;3.40;;
21243;SDS011;10780;50.942;4.028;2022-07-25T06:16:11;6.35;;;2.78;;
21243;SDS011;10780;50.942;4.028;2022-07-25T06:18:37;5.93;;;3.08;;
21243;SDS011;10780;50.942;4.028;2022-07-25T06:21:02;6.05;;;3.72;;
21243;SDS011;10780;50.942;4.028;2022-07-25T06:23:29;8.45;;;3.22;;
21243;SDS011;10780;50.942;4.028;2022-07-25T06:25:55;5.78;;;3.50;;
21243;SDS011;10780;50.942;4.028;2022-07-25T06:28:21;7.00;;;3.17;;
21243;SDS011;10780;50.942;4.028;2022-07-25T06:30:46;7.05;;;3.40;;
21243;SDS011;10780;50.942;4.028;2022-07-25T06:33:12;4.82;;;2.95;;
21243;SDS011;10780;50.942;4.028;2022-07-25T06:35:38;7.00;;;3.08;;
21243;SDS011;10780;50.942;4.028;2022-07-25T06:38:03;5.03;;;3.10;;
21243;SDS011;10780;50.942;4.028;2022-07-25T06:40:29;5.03;;;3.15;;
21243;SDS011;10780;50.942;4.028;2022-07-25T06:42:55;6.68;;;3.60;;
21243;SDS011;10780;50.942;4.028;2022-07-25T06:45:21;5.95;;;3.58;;
21243;SDS011;10780;50.942;4.028;2022-07-25T06:47:46;6.97;;;3.38;;
21243;SDS011;10780;50.942;4.028;2022-07-25T06:50:13;4.85;;;3.65;;
21243;SDS011;10780;50.942;4.028;2022-07-25T06:52:42;5.30;;;3.30;;
21243;SDS011;10780;50.942;4.028;2022-07-25T06:55:09;9.35;;;3.67;;
21243;SDS011;10780;50.942;4.028;2022-07-25T06:57:37;6.18;;;3.92;;
21243;SDS011;10780;50.942;4.028;2022-07-25T07:00:04;7.07;;;3.85;;
21243;SDS011;10780;50.942;4.028;2022-07-25T07:02:34;5.50;;;3.92;;
21243;SDS011;10780;50.942;4.028;2022-07-25T07:05:00;8.95;;;3.75;;
21243;SDS011;10780;50.942;4.028;2022-07-25T07:07:25;4.45;;;3.40;;
21243;SDS011;10780;50.942;4.028;2022-07-25T07:09:51;6.15;;;3.20;;
21243;SDS011;10780;50.942;4.028;2022-07-25T07:12:17;6.60;;;3.30;;
21243;SDS011;10780;50.942;4.028;2022-07-25T07:14:42;6.22;;;3.63;;
21243;SDS011;10780;50.942;4.028;2022-07-25T07:17:09;4.15;;;3.35;;
21243;SDS011;10780;50.942;4.028;2022-07-25T07:19:35;6.72;;;3.05;;
21243;SDS011;10780;50.942;4.028;2022-07-25T07:22:02;4.20;;;2.80;;
21243;SDS011;10780;50.942;4.028;2022-07-25T07:24:28;5.97;;;2.88;;
21243;SDS011;10780;50.942;4.028;2022-07-25T07:26:53;5.82;;;3.03;;
21243;SDS011;10780;50.942;4.028;2022-07-25T07:29:19;6.50;;;3.33;;
21243;SDS011;10780;50.942;4.028;2022-07-25T07:31:45;5.65;;;3.25;;
21243;SDS011;10780;50.942;4.028;2022-07-25T07:34:11;3.63;;;2.85;;
21243;SDS011;10780;50.942;4.028;2022-07-25T07:36:37;5.38;;;3.13;;
21243;SDS011;10780;50.942;4.028;2022-07-25T07:39:03;5.65;;;3.05;;
21243;SDS011;10780;50.942;4.028;2022-07-25T07:41:29;10.68;;;3.40;;
21243;SDS011;10780;50.942;4.028;2022-07-25T07:43:54;4.95;;;2.95;;
21243;SDS011;10780;50.942;4.028;2022-07-25T07:46:20;5.53;;;2.67;;
21243;SDS011;10780;50.942;4.028;2022-07-25T07:48:46;4.13;;;2.22;;
21243;SDS011;10780;50.942;4.028;2022-07-25T07:51:11;4.78;;;2.85;;
21243;SDS011;10780;50.942;4.028;2022-07-25T07:53:37;5.50;;;2.75;;
21243;SDS011;10780;50.942;4.028;2022-07-25T07:56:21;2.88;;;2.42;;
21243;SDS011;10780;50.942;4.028;2022-07-25T07:58:47;4.57;;;2.97;;
21243;SDS011;10780;50.942;4.028;2022-07-25T08:01:12;3.20;;;2.55;;
21243;SDS011;10780;50.942;4.028;2022-07-25T08:03:38;3.35;;;2.38;;
21243;SDS011;10780;50.942;4.028;2022-07-25T08:06:04;4.05;;;2.45;;
21243;SDS011;10780;50.942;4.028;2022-07-25T08:08:29;5.38;;;2.55;;
21243;SDS011;10780;50.942;4.028;2022-07-25T08:10:55;4.82;;;2.72;;
21243;SDS011;10780;50.942;4.028;2022-07-25T08:13:27;4.05;;;2.10;;
21243;SDS011;10780;50.942;4.028;2022-07-25T08:15:55;7.60;;;2.75;;
21243;SDS011;10780;50.942;4.028;2022-07-25T08:18:22;5.05;;;2.90;;
21243;SDS011;10780;50.942;4.028;2022-07-25T08:20:49;4.25;;;2.42;;
21243;SDS011;10780;50.942;4.028;2022-07-25T08:23:15;4.50;;;2.70;;
21243;SDS011;10780;50.942;4.028;2022-07-25T08:25:42;5.78;;;2.47;;
21243;SDS011;10780;50.942;4.028;2022-07-25T08:28:09;5.50;;;2.20;;
21243;SDS011;10780;50.942;4.028;2022-07-25T08:30:35;5.90;;;2.60;;
21243;SDS011;10780;50.942;4.028;2022-07-25T08:33:03;5.25;;;2.35;;
21243;SDS011;10780;50.942;4.028;2022-07-25T08:35:31;3.45;;;2.47;;
21243;SDS011;10780;50.942;4.028;2022-07-25T08:37:58;3.13;;;2.10;;
21243;SDS011;10780;50.942;4.028;2022-07-25T08:40:25;4.82;;;2.50;;
21243;SDS011;10780;50.942;4.028;2022-07-25T08:42:53;3.45;;;2.20;;
21243;SDS011;10780;50.942;4.028;2022-07-25T08:45:19;3.95;;;1.90;;
21243;SDS011;10780;50.942;4.028;2022-07-25T08:47:47;2.95;;;2.20;;
21243;SDS011;10780;50.942;4.028;2022-07-25T08:50:15;3.80;;;2.20;;
21243;SDS011;10780;50.942;4.028;2022-07-25T08:52:43;4.18;;;2.38;;
21243;SDS011;10780;50.942;4.028;2022-07-25T08:55:12;2.97;;;2.10;;
21243;SDS011;10780;50.942;4.028;2022-07-25T08:57:40;2.50;;;2.15;;
21243;SDS011;10780;50.942;4.028;2022-07-25T09:00:08;3.83;;;2.10;;
21243;SDS011;10780;50.942;4.028;2022-07-25T09:02:36;4.90;;;2.55;;
21243;SDS011;10780;50.942;4.028;2022-07-25T09:05:02;4.90;;;2.05;;
21243;SDS011;10780;50.942;4.028;2022-07-25T09:07:32;5.45;;;2.17;;
21243;SDS011;10780;50.942;4.028;2022-07-25T09:10:13;6.90;;;2.70;;
21243;SDS011;10780;50.942;4.028;2022-07-25T09:12:40;5.53;;;2.88;;
21243;SDS011;10780;50.942;4.028;2022-07-25T09:15:07;4.43;;;2.38;;
21243;SDS011;10780;50.942;4.028;2022-07-25T09:17:34;4.30;;;2.47;;
21243;SDS011;10780;50.942;4.028;2022-07-25T09:20:00;3.75;;;2.50;;
21243;SDS011;10780;50.942;4.028;2022-07-25T09:22:26;5.05;;;2.50;;
21243;SDS011;10780;50.942;4.028;2022-07-25T09:24:54;4.50;;;2.35;;
21243;SDS011;10780;50.942;4.028;2022-07-25T09:27:19;7.70;;;3.08;;
21243;SDS011;10780;50.942;4.028;2022-07-25T09:29:45;7.88;;;2.60;;
21243;SDS011;10780;50.942;4.028;2022-07-25T09:32:15;6.78;;;2.83;;
21243;SDS011;10780;50.942;4.028;2022-07-25T09:34:45;4.47;;;2.00;;
21243;SDS011;10780;50.942;4.028;2022-07-25T09:37:13;5.57;;;2.88;;
21243;SDS011;10780;50.942;4.028;2022-07-25T09:39:44;6.15;;;2.47;;
21243;SDS011;10780;50.942;4.028;2022-07-25T09:42:15;3.88;;;2.67;;
21243;SDS011;10780;50.942;4.028;2022-07-25T09:45:09;4.93;;;2.60;;
21243;SDS011;10780;50.942;4.028;2022-07-25T09:47:49;5.53;;;3.05;;
21243;SDS011;10780;50.942;4.028;2022-07-25T09:50:18;5.50;;;2.80;;
21243;SDS011;10780;50.942;4.028;2022-07-25T09:52:45;5.38;;;3.08;;
21243;SDS011;10780;50.942;4.028;2022-07-25T09:55:11;5.03;;;2.72;;
21243;SDS011;10780;50.942;4.028;2022-07-25T09:57:38;7.45;;;3.00;;
21243;SDS011;10780;50.942;4.028;2022-07-25T10:00:05;7.05;;;2.75;;
21243;SDS011;10780;50.942;4.028;2022-07-25T10:07:31;4.60;;;2.83;;
21243;SDS011;10780;50.942;4.028;2022-07-25T10:10:01;5.35;;;2.78;;
21243;SDS011;10780;50.942;4.028;2022-07-25T10:12:27;4.75;;;3.00;;
21243;SDS011;10780;50.942;4.028;2022-07-25T10:15:06;6.20;;;3.30;;
21243;SDS011;10780;50.942;4.028;2022-07-25T10:17:37;6.45;;;3.00;;
21243;SDS011;10780;50.942;4.028;2022-07-25T10:20:04;4.90;;;2.80;;
21243;SDS011;10780;50.942;4.028;2022-07-25T10:22:42;5.47;;;3.00;;
21243;SDS011;10780;50.942;4.028;2022-07-25T10:25:11;5.82;;;2.90;;
21243;SDS011;10780;50.942;4.028;2022-07-25T10:27:40;6.45;;;3.05;;
21243;SDS011;10780;50.942;4.028;2022-07-25T10:30:22;5.95;;;2.88;;
21243;SDS011;10780;50.942;4.028;2022-07-25T10:32:54;7.43;;;3.38;;
21243;SDS011;10780;50.942;4.028;2022-07-25T10:35:25;7.82;;;3.35;;
21243;SDS011;10780;50.942;4.028;2022-07-25T10:37:52;5.78;;;2.83;;
21243;SDS011;10780;50.942;4.028;2022-07-25T10:40:32;6.80;;;2.85;;
21243;SDS011;10780;50.942;4.028;2022-07-25T10:43:13;4.18;;;2.63;;
21243;SDS011;10780;50.942;4.028;2022-07-25T10:45:50;7.50;;;3.10;;
21243;SDS011;10780;50.942;4.028;2022-07-25T10:48:24;6.95;;;2.25;;
21243;SDS011;10780;50.942;4.028;2022-07-25T10:51:00;5.65;;;2.22;;
21243;SDS011;10780;50.942;4.028;2022-07-25T10:53:31;5.72;;;2.60;;
21243;SDS011;10780;50.942;4.028;2022-07-25T11:03:56;4.82;;;2.53;;
21243;SDS011;10780;50.942;4.028;2022-07-25T11:06:31;6.22;;;3.08;;
21243;SDS011;10780;50.942;4.028;2022-07-25T11:09:01;7.70;;;2.75;;
21243;SDS011;10780;50.942;4.028;2022-07-25T11:11:34;5.88;;;2.60;;
21243;SDS011;10780;50.942;4.028;2022-07-25T11:14:02;5.72;;;2.90;;
21243;SDS011;10780;50.942;4.028;2022-07-25T11:16:28;5.60;;;2.90;;
21243;SDS011;10780;50.942;4.028;2022-07-25T11:18:54;5.10;;;2.50;;
21243;SDS011;10780;50.942;4.028;2022-07-25T11:21:19;7.05;;;2.60;;
21243;SDS011;10780;50.942;4.028;2022-07-25T11:23:51;6.53;;;2.53;;
21243;SDS011;10780;50.942;4.028;2022-07-25T11:26:17;7.20;;;2.78;;
21243;SDS011;10780;50.942;4.028;2022-07-25T11:28:44;4.95;;;2.55;;
21243;SDS011;10780;50.942;4.028;2022-07-25T11:31:14;7.70;;;2.72;;
21243;SDS011;10780;50.942;4.028;2022-07-25T11:33:41;5.70;;;2.92;;
21243;SDS011;10780;50.942;4.028;2022-07-25T11:36:10;6.60;;;2.97;;
21243;SDS011;10780;50.942;4.028;2022-07-25T11:38:37;6.63;;;2.83;;
21243;SDS011;10780;50.942;4.028;2022-07-25T11:41:04;6.13;;;2.30;;
21243;SDS011;10780;50.942;4.028;2022-07-25T11:43:31;9.73;;;2.90;;
21243;SDS011;10780;50.942;4.028;2022-07-25T11:46:04;4.97;;;2.40;;
21243;SDS011;10780;50.942;4.028;2022-07-25T11:48:32;5.32;;;2.80;;
21243;SDS011;10780;50.942;4.028;2022-07-25T11:51:13;6.15;;;2.22;;
21243;SDS011;10780;50.942;4.028;2022-07-25T11:53:44;6.70;;;2.35;;
21243;SDS011;10780;50.942;4.028;2022-07-25T11:56:18;6.55;;;2.60;;
21243;SDS011;10780;50.942;4.028;2022-07-25T11:59:00;4.90;;;2.30;;
21243;SDS011;10780;50.942;4.028;2022-07-25T12:01:32;4.88;;;2.35;;
21243;SDS011;10780;50.942;4.028;2022-07-25T12:04:12;5.95;;;2.45;;
21243;SDS011;10780;50.942;4.028;2022-07-25T12:06:46;7.18;;;2.20;;
21243;SDS011;10780;50.942;4.028;2022-07-25T12:09:17;5.90;;;2.25;;
21243;SDS011;10780;50.942;4.028;2022-07-25T12:11:45;6.82;;;2.50;;
21243;SDS011;10780;50.942;4.028;2022-07-25T12:14:12;8.00;;;2.15;;
21243;SDS011;10780;50.942;4.028;2022-07-25T12:16:38;6.22;;;2.40;;
21243;SDS011;10780;50.942;4.028;2022-07-25T12:19:07;3.80;;;1.90;;
21243;SDS011;10780;50.942;4.028;2022-07-25T12:21:41;7.55;;;2.25;;
21243;SDS011;10780;50.942;4.028;2022-07-25T12:24:07;6.95;;;2.45;;
21243;SDS011;10780;50.942;4.028;2022-07-25T12:26:33;4.70;;;1.95;;
21243;SDS011;10780;50.942;4.028;2022-07-25T12:28:58;3.38;;;1.80;;
21243;SDS011;10780;50.942;4.028;2022-07-25T12:31:24;6.65;;;2.42;;
21243;SDS011;10780;50.942;4.028;2022-07-25T12:33:52;5.35;;;2.10;;
21243;SDS011;10780;50.942;4.028;2022-07-25T12:36:18;4.43;;;2.08;;
21243;SDS011;10780;50.942;4.028;2022-07-25T12:38:44;7.40;;;2.20;;
21243;SDS011;10780;50.942;4.028;2022-07-25T12:41:10;6.35;;;2.20;;
21243;SDS011;10780;50.942;4.028;2022-07-25T12:43:35;5.55;;;2.50;;
21243;SDS011;10780;50.942;4.028;2022-07-25T12:46:01;5.53;;;2.67;;
21243;SDS011;10780;50.942;4.028;2022-07-25T12:48:27;5.60;;;1.90;;
21243;SDS011;10780;50.942;4.028;2022-07-25T12:50:53;6.88;;;2.05;;
21243;SDS011;10780;50.942;4.028;2022-07-25T12:53:19;8.63;;;2.67;;
21243;SDS011;10780;50.942;4.028;2022-07-25T12:55:44;11.45;;;3.05;;
21243;SDS011;10780;50.942;4.028;2022-07-25T12:58:10;4.80;;;1.88;;
21243;SDS011;10780;50.942;4.028;2022-07-25T13:00:36;6.30;;;1.98;;
21243;SDS011;10780;50.942;4.028;2022-07-25T13:03:02;6.15;;;1.80;;
21243;SDS011;10780;50.942;4.028;2022-07-25T13:05:28;6.10;;;1.90;;
21243;SDS011;10780;50.942;4.028;2022-07-25T13:07:54;4.75;;;1.88;;
21243;SDS011;10780;50.942;4.028;2022-07-25T13:10:20;6.15;;;1.60;;
21243;SDS011;10780;50.942;4.028;2022-07-25T13:12:45;4.82;;;1.70;;
21243;SDS011;10780;50.942;4.028;2022-07-25T13:15:11;7.45;;;2.65;;
21243;SDS011;10780;50.942;4.028;2022-07-25T13:17:37;6.40;;;2.10;;
21243;SDS011;10780;50.942;4.028;2022-07-25T13:20:04;5.25;;;1.63;;
21243;SDS011;10780;50.942;4.028;2022-07-25T13:22:30;4.35;;;1.50;;
21243;SDS011;10780;50.942;4.028;2022-07-25T13:24:56;4.32;;;1.45;;
21243;SDS011;10780;50.942;4.028;2022-07-25T13:27:22;4.05;;;1.60;;
21243;SDS011;10780;50.942;4.028;2022-07-25T13:29:47;4.05;;;2.03;;
21243;SDS011;10780;50.942;4.028;2022-07-25T13:32:20;4.85;;;1.38;;
21243;SDS011;10780;50.942;4.028;2022-07-25T13:34:46;4.63;;;1.55;;
21243;SDS011;10780;50.942;4.028;2022-07-25T13:37:13;5.13;;;1.25;;
21243;SDS011;10780;50.942;4.028;2022-07-25T13:39:38;5.05;;;1.48;;
21243;SDS011;10780;50.942;4.028;2022-07-25T13:42:06;4.20;;;1.33;;
21243;SDS011;10780;50.942;4.028;2022-07-25T13:44:31;6.45;;;1.75;;
21243;SDS011;10780;50.942;4.028;2022-07-25T13:46:57;4.40;;;1.38;;
21243;SDS011;10780;50.942;4.028;2022-07-25T13:49:23;3.15;;;0.98;;
21243;SDS011;10780;50.942;4.028;2022-07-25T13:51:49;5.65;;;1.20;;
21243;SDS011;10780;50.942;4.028;2022-07-25T13:54:15;3.53;;;1.05;;
21243;SDS011;10780;50.942;4.028;2022-07-25T13:56:41;7.18;;;0.98;;
21243;SDS011;10780;50.942;4.028;2022-07-25T13:59:07;4.80;;;1.13;;
21243;SDS011;10780;50.942;4.028;2022-07-25T14:01:33;6.35;;;1.00;;
21243;SDS011;10780;50.942;4.028;2022-07-25T14:03:59;3.10;;;0.93;;
21243;SDS011;10780;50.942;4.028;2022-07-25T14:06:25;3.47;;;0.90;;
21243;SDS011;10780;50.942;4.028;2022-07-25T14:08:51;3.28;;;1.17;;
21243;SDS011;10780;50.942;4.028;2022-07-25T14:11:17;5.53;;;1.30;;
21243;SDS011;10780;50.942;4.028;2022-07-25T14:13:43;4.18;;;1.20;;
21243;SDS011;10780;50.942;4.028;2022-07-25T14:16:09;5.80;;;1.23;;
21243;SDS011;10780;50.942;4.028;2022-07-25T14:18:38;5.90;;;1.20;;
21243;SDS011;10780;50.942;4.028;2022-07-25T14:21:04;5.93;;;1.42;;
21243;SDS011;10780;50.942;4.028;2022-07-25T14:23:29;5.07;;;1.10;;
21243;SDS011;10780;50.942;4.028;2022-07-25T14:25:55;6.20;;;1.17;;
21243;SDS011;10780;50.942;4.028;2022-07-25T14:28:22;3.10;;;1.02;;
21243;SDS011;10780;50.942;4.028;2022-07-25T14:30:48;5.50;;;0.93;;
21243;SDS011;10780;50.942;4.028;2022-07-25T14:33:13;2.95;;;0.98;;
21243;SDS011;10780;50.942;4.028;2022-07-25T14:35:39;3.75;;;1.00;;
21243;SDS011;10780;50.942;4.028;2022-07-25T14:38:05;0.88;;;0.60;;
21243;SDS011;10780;50.942;4.028;2022-07-25T14:40:30;3.03;;;0.90;;
21243;SDS011;10780;50.942;4.028;2022-07-25T14:42:56;4.60;;;0.90;;
21243;SDS011;10780;50.942;4.028;2022-07-25T14:45:21;3.60;;;0.70;;
21243;SDS011;10780;50.942;4.028;2022-07-25T14:47:47;1.38;;;0.80;;
21243;SDS011;10780;50.942;4.028;2022-07-25T14:50:13;3.13;;;0.68;;
21243;SDS011;10780;50.942;4.028;2022-07-25T14:52:39;1.55;;;1.00;;
21243;SDS011;10780;50.942;4.028;2022-07-25T14:55:05;5.68;;;0.95;;
21243;SDS011;10780;50.942;4.028;2022-07-25T14:57:31;3.55;;;0.82;;
21243;SDS011;10780;50.942;4.028;2022-07-25T14:59:56;1.60;;;0.70;;